Home > Products > Valid Products > TAF

000
FTUS44 KLZK 221300 AAA
TAFPBF
TAF AMD
KPBF 221350Z 2214/2312 18008G18KT 6SM BR VCSH SCT005 BKN015 OVC035
      TEMPO 2214/2218 4SM -DZ BKN005 OVC015
     FM221800 18008G18KT P6SM VCSH SCT015 OVC040
      TEMPO 2218/2220 BKN015
     FM230000 21006KT P6SM VCSH BKN025 BKN250
     FM230400 28007KT P6SM SCT025 BKN250=



000
FTUS44 KLZK 221300 AAA
TAFPBF
TAF AMD
KPBF 221350Z 2214/2312 18008G18KT 6SM BR VCSH SCT005 BKN015 OVC035
      TEMPO 2214/2218 4SM -DZ BKN005 OVC015
     FM221800 18008G18KT P6SM VCSH SCT015 OVC040
      TEMPO 2218/2220 BKN015
     FM230000 21006KT P6SM VCSH BKN025 BKN250
     FM230400 28007KT P6SM SCT025 BKN250=



000
FTUS44 KLZK 221300 AAA
TAFLIT
TAF AMD
KLIT 221339Z 2214/2312 16008G15KT 6SM -RA BR BKN015 OVC025
      TEMPO 2214/2218 4SM -RA OVC005
     FM221800 16008G15KT P6SM VCSH FEW008 BKN035 OVC050
      TEMPO 2218/2220 6SM -SHRA BR SCT008 OVC015
     FM222200 21006KT P6SM VCSH BKN025 BKN250
     FM230300 28007KT P6SM SCT025 BKN250=



000
FTUS44 KLZK 221300 AAA
TAFLIT
TAF AMD
KLIT 221339Z 2214/2312 16008G15KT 6SM -RA BR BKN015 OVC025
      TEMPO 2214/2218 4SM -RA OVC005
     FM221800 16008G15KT P6SM VCSH FEW008 BKN035 OVC050
      TEMPO 2218/2220 6SM -SHRA BR SCT008 OVC015
     FM222200 21006KT P6SM VCSH BKN025 BKN250
     FM230300 28007KT P6SM SCT025 BKN250=



000
FTUS44 KLZK 221100 CCA
TAFLIT
TAF COR
KLIT 221159Z 2212/2312 16008G15KT P6SM VCSH BKN015 OVC025
      TEMPO 2214/2216 4SM -RADZ BKN008
     FM221600 16008G15KT P6SM VCSH SCT008 OVC015
      TEMPO 2216/2220 BKN008
     FM222200 21006KT P6SM VCSH BKN025 BKN250
     FM230300 28007KT P6SM SCT025 BKN250=



000
FTUS44 KLZK 221100
TAFPBF
TAF
KPBF 221121Z 2212/2312 18008G18KT P6SM VCSH BKN012 OVC025
      TEMPO 2214/2216 -DZ BKN008 OVC015
     FM221600 18008G18KT P6SM VCSH SCT008 OVC015
      TEMPO 2216/2220 BKN008
     FM230000 21006KT P6SM VCSH BKN025 BKN250
     FM230400 28007KT P6SM SCT025 BKN250=



000
FTUS44 KLZK 221100
TAFLIT
TAF
KLIT 221121Z 2212/2312 15008KT P6SM VCSH BKN015 OVC025
      TEMPO 2214/2216 4SM -RADZ BKN008
     FM221600 16008G15KT P6SM VCSH SCT008 OVC015
      TEMPO 2216/2220 BKN008
     FM222200 21006KT P6SM VCSH BKN025 BKN250
     FM230300 28007KT P6SM SCT025 BKN250=



000
FTUS44 KLZK 221100
TAFHRO
TAF
KHRO 221121Z 2212/2312 15009KT P6SM VCSH BKN012 OVC025
      TEMPO 2212/2216 5SM -RADZ BKN006
     FM221600 18009KT P6SM VCSH BKN015 OVC025
     FM230200 27008KT P6SM SCT015 BKN025
     FM230600 27004KT P6SM SCT025 BKN250=



000
FTUS44 KLZK 221100
TAFHOT
TAF
KHOT 221121Z 2212/2312 14006KT P6SM VCSH BKN012 OVC020
      TEMPO 2212/2216 5SM -RADZ BR BKN005
     FM221600 18008KT P6SM VCSH SCT008 OVC012
      TEMPO 2216/2220 BKN008
     FM230200 28007KT P6SM SCT015 BKN025
     FM230500 VRB05KT P6SM SCT025 BKN250=



000
FTUS44 KLZK 221000 AAB
TAFLIT
TAF AMD
KLIT 221059Z 2211/2306 11006KT P6SM VCSH BKN025 BKN040
      TEMPO 2211/2215 3SM -RADZ BR BKN005
     FM221600 16008KT P6SM VCSH OVC015
     FM222200 21006KT P6SM BKN025 BKN250
     FM230300 29007KT P6SM SCT025 BKN250=



000
FTUS44 KLZK 220700 AAA
TAFHOT
TAF AMD
KHOT 220747Z 2208/2306 14006KT P6SM BKN014 OVC020
      TEMPO 2209/2213 BKN008
     FM221300 16008KT P6SM VCSH OVC012
     FM230000 29007KT P6SM SCT025 BKN250=



000
FTUS44 KLZK 220700 AAA
TAFHOT
TAF AMD
KHOT 220747Z 2208/2306 14006KT P6SM BKN014 OVC020
      TEMPO 2209/2213 BKN008
     FM221300 16008KT P6SM VCSH OVC012
     FM230000 29007KT P6SM SCT025 BKN250=



000
FTUS44 KLZK 220700 AAA
TAFHRO
TAF AMD
KHRO 220743Z 2208/2306 14009KT P6SM BKN014 OVC025
      TEMPO 2209/2213 BKN005
     FM221300 15009KT P6SM VCSH BKN015 OVC025
     FM230000 18010KT P6SM SCT015 BKN025=



000
FTUS44 KLZK 220700 AAA
TAFHRO
TAF AMD
KHRO 220743Z 2208/2306 14009KT P6SM BKN014 OVC025
      TEMPO 2209/2213 BKN005
     FM221300 15009KT P6SM VCSH BKN015 OVC025
     FM230000 18010KT P6SM SCT015 BKN025=



000
FTUS44 KLZK 220700 AAA
TAFLIT
TAF AMD
KLIT 220739Z 2208/2306 11006KT P6SM BKN025 BKN040
      TEMPO 2210/2214 5SM BR BKN015
     FM221600 16008KT P6SM VCSH OVC015
     FM222200 21006KT P6SM BKN025 BKN250
     FM230300 29007KT P6SM SCT025 BKN250=



000
FTUS44 KLZK 220700 AAA
TAFLIT
TAF AMD
KLIT 220739Z 2208/2306 11006KT P6SM BKN025 BKN040
      TEMPO 2210/2214 5SM BR BKN015
     FM221600 16008KT P6SM VCSH OVC015
     FM222200 21006KT P6SM BKN025 BKN250
     FM230300 29007KT P6SM SCT025 BKN250=



000
FTUS44 KLZK 220500
TAFHOT
TAF
KHOT 220520Z 2206/2306 14006KT P6SM BKN030
     FM220900 15005KT P6SM SCT012 OVC030
     FM221300 16008KT P6SM VCSH OVC012
     FM230000 29007KT P6SM SCT025 BKN250=



000
FTUS44 KLZK 220500
TAFHRO
TAF
KHRO 220520Z 2206/2306 14009KT P6SM BKN025 OVC040
     FM220900 14009KT 4SM BR SCT015 BKN025
     FM221300 15009KT P6SM VCSH BKN015 OVC025
     FM230000 18010KT P6SM SCT015 BKN025=



000
FTUS44 KLZK 220500
TAFPBF
TAF
KPBF 220520Z 2206/2306 15007KT P6SM BKN040 OVC080
      TEMPO 2210/2214 5SM BR BKN012
     FM221600 16008KT P6SM OVC012
     FM221900 19006KT P6SM VCSH OVC020
     FM222300 21006KT P6SM BKN025 BKN250
     FM230300 29007KT P6SM SCT025 BKN250=



000
FTUS44 KLZK 220500
TAFLIT
TAF
KLIT 220520Z 2206/2306 11006KT P6SM BKN040 OVC070
      TEMPO 2210/2214 5SM BR BKN015
     FM221600 16008KT P6SM VCSH OVC015
     FM222200 21006KT P6SM BKN025 BKN250
     FM230300 29007KT P6SM SCT025 BKN250=



000
FTUS44 KLZK 212300
TAFHRO
TAF
KHRO 212322Z 2200/2224 15008KT P6SM SCT025 OVC050
      TEMPO 2200/2203 BKN025
     FM220900 14009G16KT P6SM SCT012 OVC020
      TEMPO 2210/2214 5SM BR BKN012
     FM221500 15010G18KT P6SM VCSH OVC015
     FM221800 19006KT P6SM VCSH OVC020 PROB30 2218/2224 5SM -SHRA
      BR=



000
FTUS44 KLZK 212300
TAFHOT
TAF
KHOT 212322Z 2200/2224 13006KT P6SM BKN060 BKN100
     FM220800 15007KT P6SM SCT012 OVC040
      TEMPO 2210/2214 5SM BR BKN012
     FM221500 16008KT P6SM VCSH OVC012
     FM221800 19006KT P6SM VCSH OVC020 PROB30 2218/2224 5SM -SHRA
      BR=



000
FTUS44 KLZK 212300
TAFLIT
TAF
KLIT 212322Z 2200/2224 14009KT P6SM SCT080
     FM220400 12004KT P6SM SCT040 BKN080
     FM220800 15007KT P6SM SCT012 OVC040
      TEMPO 2210/2214 5SM BR BKN012
     FM221500 16008KT P6SM VCSH OVC012
     FM221800 19006KT P6SM VCSH OVC020 PROB30 2218/2224 5SM -SHRA
      BR=



000
FTUS44 KLZK 212300
TAFPBF
TAF
KPBF 212322Z 2200/2224 13005KT P6SM SCT080
     FM220400 12004KT P6SM SCT040 BKN080
     FM220800 15007KT P6SM SCT012 OVC040
      TEMPO 2210/2214 5SM BR BKN012
     FM221500 16008KT P6SM VCSH OVC012
     FM221800 19006KT P6SM VCSH OVC020 PROB30 2218/2224 5SM -SHRA
      BR=



000
FTUS44 KLZK 212000 AAA
TAFHRO
TAF AMD
KHRO 212022Z 2120/2218 15008KT P6SM SCT025 OVC040
      TEMPO 2120/2124 BKN025
     FM220100 15009KT P6SM SCT040 BKN060
     FM220900 14009G16KT P6SM SCT015 OVC040
      TEMPO 2210/2214 5SM BR BKN015
     FM221500 15010G18KT P6SM VCSH OVC015=



000
FTUS44 KLZK 211700
TAFHOT
TAF
KHOT 211725Z 2118/2218 13006KT P6SM BKN050
     FM220100 13006KT P6SM SCT040 BKN060
     FM220900 15007KT P6SM SCT012 OVC040
      TEMPO 2210/2214 5SM BR BKN012
     FM221500 16008KT P6SM VCSH OVC012=



000
FTUS44 KLZK 211700
TAFLIT
TAF
KLIT 211725Z 2118/2218 12005KT P6SM SCT060 SCT250
     FM220100 13006KT P6SM BKN060
     FM220900 14007KT P6SM SCT015 OVC050
      TEMPO 2210/2214 5SM BR BKN015
     FM221500 16009G16KT P6SM VCSH OVC015=



000
FTUS44 KLZK 211700
TAFHRO
TAF
KHRO 211725Z 2118/2218 15008KT P6SM OVC035
     FM220100 15009KT P6SM SCT040 BKN060
     FM220900 14009G16KT P6SM SCT015 OVC040
      TEMPO 2210/2214 5SM BR BKN015
     FM221500 15010G18KT P6SM VCSH OVC015=



000
FTUS44 KLZK 211700
TAFPBF
TAF
KPBF 211725Z 2118/2218 11005KT P6SM SCT060 SCT250
     FM220100 13006KT P6SM BKN060
     FM220900 15007KT P6SM SCT015 OVC050
      TEMPO 2210/2214 5SM BR BKN015
     FM221500 17009G16KT P6SM VCSH OVC015=



000
FTUS44 KLZK 211400 AAB
TAFHOT
TAF AMD
KHOT 211418Z 2114/2212 VRB03KT 4SM BR BKN060
      TEMPO 2114/2116 1SM BR BKN002
     FM211600 10004KT P6SM BKN060
     FM220300 15006KT P6SM SCT015 BKN050
      TEMPO 2208/2212 4SM BR BKN015=



000
FTUS44 KLZK 211400 AAB
TAFHOT
TAF AMD
KHOT 211418Z 2114/2212 VRB03KT 4SM BR BKN060
      TEMPO 2114/2116 1SM BR BKN002
     FM211600 10004KT P6SM BKN060
     FM220300 15006KT P6SM SCT015 BKN050
      TEMPO 2208/2212 4SM BR BKN015=



000
FTUS44 KLZK 211400 AAA
TAFPBF
TAF AMD
KPBF 211416Z 2114/2212 12006KT P6SM SCT060
      TEMPO 2114/2116 4SM BR
     FM220300 15006KT P6SM SCT025 BKN050
      TEMPO 2208/2212 4SM BR=



000
FTUS44 KLZK 211400 AAA
TAFPBF
TAF AMD
KPBF 211416Z 2114/2212 12006KT P6SM SCT060
      TEMPO 2114/2116 4SM BR
     FM220300 15006KT P6SM SCT025 BKN050
      TEMPO 2208/2212 4SM BR=



000
FTUS44 KLZK 211200 AAA
TAFHOT
TAF AMD
KHOT 211225Z 2112/2212 VRB03KT 3SM BR BKN060
      TEMPO 2112/2114 1/4SM FG BKN001
     FM211500 10004KT P6SM BKN060
     FM220300 15006KT P6SM SCT015 BKN050
      TEMPO 2208/2212 4SM BR BKN015=



000
FTUS44 KLZK 211200 AAA
TAFHOT
TAF AMD
KHOT 211225Z 2112/2212 VRB03KT 3SM BR BKN060
      TEMPO 2112/2114 1/4SM FG BKN001
     FM211500 10004KT P6SM BKN060
     FM220300 15006KT P6SM SCT015 BKN050
      TEMPO 2208/2212 4SM BR BKN015=



000
FTUS44 KLZK 211200 CCB
TAFHOT
TAF COR
KHOT 211200Z 2112/2212 VRB03KT 4SM BR BKN060
      TEMPO 2112/2114 2SM BR BKN002
     FM211500 10004KT P6SM BKN060
     FM220300 15006KT P6SM SCT015 BKN050
      TEMPO 2208/2212 4SM BR BKN015=



000
FTUS44 KLZK 211200 CCB
TAFHOT
TAF COR
KHOT 211200Z 2112/2212 VRB03KT 4SM BR BKN060
      TEMPO 2112/2114 2SM BR BKN002
     FM211500 10004KT P6SM BKN060
     FM220300 15006KT P6SM SCT015 BKN050
      TEMPO 2208/2212 4SM BR BKN015=



000
FTUS44 KLZK 211100 CCA
TAFHOT
TAF COR
KHOT 211152Z 2112/2212 VRB03KT 4SM BR BKN060
      TEMPO 2112/2113 2SM BR BKN002
     FM211500 10004KT P6SM BKN060
     FM220300 15006KT P6SM SCT015 BKN050
      TEMPO 2208/2212 4SM BR BKN015=



000
FTUS44 KLZK 211100 CCA
TAFHOT
TAF COR
KHOT 211152Z 2112/2212 VRB03KT 4SM BR BKN060
      TEMPO 2112/2113 2SM BR BKN002
     FM211500 10004KT P6SM BKN060
     FM220300 15006KT P6SM SCT015 BKN050
      TEMPO 2208/2212 4SM BR BKN015=



000
FTUS44 KLZK 211100 CCA
TAFPBF
TAF COR
KPBF 211148Z 2112/2212 33004KT 2SM BR SKC
      TEMPO 2112/2114 1/4SM FZFG BKN004
     FM211400 12006KT P6SM SCT050
     FM220300 15006KT P6SM SCT025 BKN050
      TEMPO 2208/2212 4SM BR=



000
FTUS44 KLZK 211100
TAFHOT
TAF
KHOT 211120Z 2112/2212 VRB03KT 4SM BR BKN060
      TEMPO 2112/2113 2SM BR
     FM211500 10004KT P6SM BKN060
     FM220300 15006KT P6SM SCT015 BKN050
      TEMPO 2208/2212 4SM BR BKN015=



000
FTUS44 KLZK 211100
TAFHRO
TAF
KHRO 211120Z 2112/2212 14004KT 6SM BR OVC020
      TEMPO 2112/2113 4SM BR
     FM211500 15008KT P6SM BKN025 BKN060
     FM220100 15009KT P6SM SCT015 BKN050
     FM220600 15010KT P6SM BKN015 OVC050
      TEMPO 2208/2212 4SM BR=



000
FTUS44 KLZK 211100
TAFPBF
TAF
KPBF 211120Z 2112/2212 33004KT 4SM BR SKC
      TEMPO 2112/2114 2SM BR
     FM211400 12006KT P6SM SCT050
     FM220300 15006KT P6SM SCT025 BKN050
      TEMPO 2208/2212 4SM BR=



000
FTUS44 KLZK 211100
TAFLIT
TAF
KLIT 211120Z 2112/2212 12005KT P6SM SCT050
      TEMPO 2112/2114 4SM BR
     FM220300 15006KT P6SM SCT015 BKN050
      TEMPO 2208/2212 4SM BR BKN015=



000
FTUS44 KLZK 211000 AAA
TAFPBF
TAF AMD
KPBF 211007Z 2110/2206 04003KT 2SM BR SKC
      TEMPO 2110/2113 1/2SM FG
     FM211400 07006KT P6SM SKC
     FM212100 12006KT P6SM SKC
     FM220300 15006KT P6SM SCT015=



000
FTUS44 KLZK 211000 AAA
TAFPBF
TAF AMD
KPBF 211007Z 2110/2206 04003KT 2SM BR SKC
      TEMPO 2110/2113 1/2SM FG
     FM211400 07006KT P6SM SKC
     FM212100 12006KT P6SM SKC
     FM220300 15006KT P6SM SCT015=



000
FTUS44 KLZK 210500
TAFHRO
TAF
KHRO 210524Z 2106/2206 14004KT 6SM BR OVC020
      TEMPO 2109/2113 2SM BR BKN005
     FM211500 15008KT P6SM SCT025 BKN060
      TEMPO 2115/2118 BKN025
     FM220100 15009KT P6SM SCT015 BKN050=



000
FTUS44 KLZK 210500
TAFLIT
TAF
KLIT 210524Z 2106/2206 10003KT P6SM BKN050
     FM210700 12005KT P6SM SCT050
      TEMPO 2109/2113 5SM BR
     FM211500 10004KT P6SM BKN050
     FM212000 13005KT P6SM SCT050
     FM220300 15006KT P6SM SCT015 BKN050=



000
FTUS44 KLZK 210500
TAFPBF
TAF
KPBF 210524Z 2106/2206 04003KT P6SM SKC
      TEMPO 2109/2113 5SM BR
     FM211400 07006KT P6SM SKC
     FM212100 12006KT P6SM SKC
     FM220300 15006KT P6SM SCT015=



000
FTUS44 KLZK 210500
TAFHOT
TAF
KHOT 210524Z 2106/2206 10003KT P6SM SCT050
      TEMPO 2109/2113 5SM BR
     FM211500 10004KT P6SM BKN050
     FM212000 13005KT P6SM SCT050
     FM220300 15006KT P6SM SCT015 BKN050=



000
FTUS44 KLZK 202300
TAFLIT
TAF
KLIT 202323Z 2100/2124 08005KT P6SM BKN050
     FM210300 08003KT P6SM SCT050 SCT250
      TEMPO 2109/2113 5SM BR
     FM211500 08004KT P6SM BKN050=



000
FTUS44 KLZK 202300
TAFHRO
TAF
KHRO 202323Z 2100/2124 15004KT P6SM OVC025
     FM210600 14004KT 5SM BR SCT007 OVC025
      TEMPO 2109/2113 2SM BR BKN007
     FM211500 15008KT P6SM SCT025 BKN060
      TEMPO 2115/2118 BKN025=



000
FTUS44 KLZK 202300
TAFHOT
TAF
KHOT 202323Z 2100/2124 11003KT P6SM BKN025 BKN050
     FM210300 10003KT P6SM SCT060 SCT250
      TEMPO 2109/2113 5SM BR
     FM211500 10004KT P6SM BKN050
     FM212000 13005KT P6SM SCT050=



000
FTUS44 KLZK 202300
TAFPBF
TAF
KPBF 202323Z 2100/2124 04003KT P6SM SCT050 SCT250
      TEMPO 2109/2113 5SM BR
     FM211400 07006KT P6SM SKC
     FM212100 12006KT P6SM SKC=



000
FTUS44 KLZK 202000 AAA
TAFPBF
TAF AMD
KPBF 202027Z 2020/2118 05005KT P6SM SCT050
     FM210100 06003KT P6SM SCT060 SCT250
      TEMPO 2109/2113 5SM BR=



000
FTUS44 KLZK 202000 AAB
TAFHOT
TAF AMD
KHOT 202027Z 2020/2118 11003KT P6SM BKN050
     FM210100 10003KT P6SM SCT060 SCT250
      TEMPO 2109/2113 5SM BR
     FM211500 10004KT P6SM BKN060=



000
FTUS44 KLZK 201900 AAA
TAFHOT
TAF AMD
KHOT 201935Z 2020/2118 11003KT P6SM SCT025 OVC050
      TEMPO 2020/2022 BKN025
     FM210100 10003KT P6SM BKN060
      TEMPO 2109/2113 5SM BR=



000
FTUS44 KLZK 201900 AAA
TAFHRO
TAF AMD
KHRO 201934Z 2020/2118 14004KT P6SM OVC025
     FM210600 14004KT 5SM BR SCT007 OVC020
      TEMPO 2109/2113 2SM BR BKN007
     FM211500 15008KT P6SM SCT025 BKN060=



000
FTUS44 KLZK 201700
TAFPBF
TAF
KPBF 201739Z 2018/2118 05005KT P6SM BKN050
     FM210100 06003KT P6SM SCT060 SCT250
      TEMPO 2109/2113 5SM BR=



000
FTUS44 KLZK 201700
TAFHOT
TAF
KHOT 201739Z 2018/2118 11003KT P6SM OVC025
     FM202100 11003KT P6SM SCT025 OVC050
     FM210100 10003KT P6SM BKN060
      TEMPO 2109/2113 5SM BR=



000
FTUS44 KLZK 201700
TAFHRO
TAF
KHRO 201739Z 2018/2118 15005KT P6SM SCT007 OVC015
      TEMPO 2018/2021 5SM BR BKN007
     FM210100 15004KT 6SM BR OVC025
     FM210600 14004KT 5SM BR SCT007 OVC020
      TEMPO 2109/2113 2SM BR BKN007
     FM211500 15008KT P6SM SCT025 BKN060=



000
FTUS44 KLZK 201700
TAFLIT
TAF
KLIT 201739Z 2018/2118 08005KT P6SM BKN050
     FM210100 08003KT P6SM SCT060 SCT250
      TEMPO 2109/2113 5SM BR
     FM211500 08004KT P6SM BKN060=



000
FTUS44 KLZK 201500 AAB
TAFHRO
TAF AMD
KHRO 201558Z 2016/2112 14004KT 3SM BR SCT002 OVC015
      TEMPO 2016/2017 1SM BR BKN002
     FM201700 15005KT 5SM BR OVC020
     FM202100 15005KT P6SM BKN030
     FM210100 15004KT P6SM SCT040 SCT250
      TEMPO 2108/2112 4SM BR=



000
FTUS44 KLZK 201500 AAB
TAFHOT
TAF AMD
KHOT 201557Z 2016/2112 10003KT P6SM SCT025 OVC050
      TEMPO 2016/2018 BKN025
     FM210100 10003KT P6SM SCT060 SCT250
      TEMPO 2108/2112 5SM BR=



000
FTUS44 KLZK 201500 AAA
TAFHRO
TAF AMD
KHRO 201554Z 2016/2112 14004KT 3SM BR SCT002 OVC015
      TEMPO 2016/2017 1SM BR
     FM201700 15005KT 5SM BR OVC020
     FM202100 15005KT P6SM BKN030
     FM210100 15004KT P6SM SCT040 SCT250
      TEMPO 2108/2112 4SM BR=



000
FTUS44 KLZK 201400 AAA
TAFPBF
TAF AMD
KPBF 201443Z 2015/2112 04005KT P6SM OVC050
     FM210100 06003KT P6SM SCT060 SCT250
      TEMPO 2108/2112 5SM BR=



000
FTUS44 KLZK 201400 AAA
TAFLIT
TAF AMD
KLIT 201440Z 2015/2112 06005KT P6SM OVC050
     FM210100 09003KT P6SM SCT060 SCT250
      TEMPO 2108/2112 5SM BR=



000
FTUS44 KLZK 201400 AAA
TAFHOT
TAF AMD
KHOT 201437Z 2015/2112 10003KT P6SM OVC050
     FM210100 10003KT P6SM SCT060 SCT250
      TEMPO 2108/2112 5SM BR=



000
FTUS44 KLZK 201100
TAFLIT
TAF
KLIT 201120Z 2012/2112 VRB03KT P6SM OVC040
      TEMPO 2012/2015 BKN015
     FM201500 12003KT P6SM OVC015
     FM202100 13004KT P6SM BKN020
     FM210300 15005KT P6SM SCT030
      TEMPO 2108/2112 4SM BR BKN025=



000
FTUS44 KLZK 201100
TAFHRO
TAF
KHRO 201120Z 2012/2112 VRB04KT 1/4SM -DZ FG VV001
     FM201530 14005KT 3SM BR OVC005
     FM201700 15006KT 5SM BR OVC012
     FM202100 VRB04KT P6SM BKN030
      TEMPO 2108/2112 3SM BR BKN015=



000
FTUS44 KLZK 201100
TAFPBF
TAF
KPBF 201120Z 2012/2112 03003KT P6SM SCT015 OVC040
      TEMPO 2012/2015 5SM BR BKN010
     FM201500 03003KT P6SM BKN015
     FM201700 04004KT P6SM SCT025 BKN060
      TEMPO 2108/2112 4SM BR BKN025=



000
FTUS44 KLZK 201100
TAFHOT
TAF
KHOT 201120Z 2012/2112 VRB03KT P6SM BKN040
      TEMPO 2012/2015 BKN010
     FM201500 VRB03KT 5SM BR OVC010
     FM202100 13004KT P6SM BKN020
     FM210300 VRB05KT P6SM SCT030
      TEMPO 2108/2112 4SM BR BKN010=



000
FTUS44 KLZK 200900 AAA
TAFLIT
TAF AMD
KLIT 200921Z 2009/2106 07003KT P6SM SCT015 BKN040
      TEMPO 2011/2015 BKN015
     FM201700 12003KT P6SM OVC015
     FM202100 13004KT P6SM BKN020
     FM210300 15005KT P6SM SCT030=



000
FTUS44 KLZK 200500
TAFHOT
TAF
KHOT 200520Z 2006/2106 07003KT 6SM BR BKN009 OVC040
      TEMPO 2006/2009 3SM BR
     FM200900 07003KT 2SM BR OVC003
      TEMPO 2010/2014 1/2SM FG VV001
     FM201530 08003KT 5SM BR OVC007
     FM201700 12003KT P6SM OVC015
     FM202100 13004KT P6SM BKN020
     FM210300 15005KT P6SM SCT030=



000
FTUS44 KLZK 200500
TAFLIT
TAF
KLIT 200520Z 2006/2106 04005KT 6SM BR OVC050
     FM200900 07003KT 2SM BR OVC003
      TEMPO 2010/2014 1/2SM FG VV001
     FM201530 08003KT 5SM BR OVC007
     FM201700 12003KT P6SM OVC015
     FM202100 13004KT P6SM BKN020
     FM210300 15005KT P6SM SCT030=



000
FTUS44 KLZK 200500
TAFPBF
TAF
KPBF 200520Z 2006/2106 03006KT 6SM BR OVC050
     FM200900 03003KT 5SM BR OVC012
      TEMPO 2010/2014 3SM BR OVC007
     FM201500 03003KT P6SM BKN015
     FM201700 04004KT P6SM SCT025 BKN060=



000
FTUS44 KLZK 200500
TAFHRO
TAF
KHRO 200520Z 2006/2106 14003KT 1/4SM FG VV001
     FM201530 14005KT 3SM BR OVC005
     FM201700 15006KT 5SM BR OVC012
     FM202100 13004KT P6SM BKN030
     FM210300 15005KT P6SM SCT030=



000
FTUS44 KLZK 200400 AAA
TAFPBF
TAF AMD
KPBF 200437Z 2005/2024 02005KT P6SM OVC050
     FM200900 03003KT 5SM BR OVC012
      TEMPO 2010/2014 3SM BR OVC007
     FM201500 03003KT P6SM BKN015
     FM201700 04004KT P6SM SCT025 BKN060=



000
FTUS44 KLZK 200300 AAA
TAFLIT
TAF AMD
KLIT 200315Z 2003/2024 03006KT 6SM BR OVC050
     FM200900 05003KT 3SM BR OVC007
      TEMPO 2010/2014 1SM BR OVC005
     FM201500 05003KT 5SM BR OVC012
     FM201700 07004KT P6SM OVC020=



000
FTUS44 KLZK 200300 AAA
TAFLIT
TAF AMD
KLIT 200315Z 2003/2024 03006KT 6SM BR OVC050
     FM200900 05003KT 3SM BR OVC007
      TEMPO 2010/2014 1SM BR OVC005
     FM201500 05003KT 5SM BR OVC012
     FM201700 07004KT P6SM OVC020=



000
FTUS44 KLZK 200300 AAA
TAFHRO
TAF AMD
KHRO 200313Z 2003/2024 14003KT 1/4SM FG VV001
     FM201530 14005KT 3SM BR OVC005
     FM201700 15006KT 5SM BR OVC012
     FM202100 13004KT P6SM BKN020=



000
FTUS44 KLZK 192300
TAFHOT
TAF
KHOT 192327Z 2000/2024 04003KT 4SM BR OVC006
     FM200900 07003KT 3SM BR OVC003
      TEMPO 2010/2014 1/2SM FG VV001
     FM201530 08003KT 5SM BR OVC007
     FM201700 12003KT P6SM OVC015
     FM202100 13004KT P6SM BKN020=



000
FTUS44 KLZK 192300
TAFHRO
TAF
KHRO 192327Z 2000/2024 12004KT 1SM BR OVC003
     FM200600 14003KT 1/4SM FG VV001
     FM201530 14005KT 3SM BR OVC005
     FM201700 15006KT 5SM BR OVC012
     FM202100 13004KT P6SM BKN020=



000
FTUS44 KLZK 192300
TAFLIT
TAF
KLIT 192327Z 2000/2024 03006KT 6SM BR BKN015 OVC040
     FM200300 03006KT 5SM BR BKN009 OVC030
     FM200900 05003KT 3SM BR OVC007
      TEMPO 2010/2014 1SM BR OVC005
     FM201500 05003KT 5SM BR OVC012
     FM201700 07004KT P6SM OVC020=



000
FTUS44 KLZK 192300
TAFPBF
TAF
KPBF 192327Z 2000/2024 02008KT P6SM OVC050
     FM200300 04006KT 5SM BR SCT015 OVC030
      TEMPO 2003/2006 BKN015
     FM200900 03003KT 5SM BR OVC012
      TEMPO 2010/2014 3SM BR OVC007
     FM201500 03003KT P6SM BKN015
     FM201700 04004KT P6SM SCT025 BKN060=



000
FTUS44 KLZK 192000 AAA
TAFHOT
TAF AMD
KHOT 192015Z 1920/2018 08005KT 6SM BR OVC007
     FM200000 08003KT 5SM BR OVC005
     FM200900 07003KT 3SM BR OVC003
      TEMPO 2010/2014 1/2SM FG VV001
     FM201530 08003KT 5SM BR OVC007
     FM201700 12003KT P6SM OVC015=



000
FTUS44 KLZK 192000 AAA
TAFPBF
TAF AMD
KPBF 192014Z 1920/2018 07006KT P6SM SCT015 OVC060
      TEMPO 1920/1924 -RA BKN015
     FM200000 04004KT P6SM SCT012 OVC020
     FM200900 03003KT 5SM BR OVC012
      TEMPO 2010/2014 3SM BR OVC007
     FM201500 03003KT P6SM BKN015
     FM201700 04004KT P6SM SCT025 BKN060=



000
FTUS44 KLZK 191900 AAA
TAFHRO
TAF AMD
KHRO 191951Z 1920/2018 12004KT 4SM BR OVC005
     FM200200 13003KT 2SM BR OVC003
     FM200600 14003KT 1/4SM FG VV001
     FM201530 14005KT 3SM BR OVC005
     FM201700 15006KT 5SM BR OVC012=



000
FTUS44 KLZK 191900 AAA
TAFHRO
TAF AMD
KHRO 191951Z 1920/2018 12004KT 4SM BR OVC005
     FM200200 13003KT 2SM BR OVC003
     FM200600 14003KT 1/4SM FG VV001
     FM201530 14005KT 3SM BR OVC005
     FM201700 15006KT 5SM BR OVC012=



000
FTUS44 KLZK 191700 RRA
TAFHRO
TAF
KHRO 191744Z 1918/2018 12004KT 1/4SM FG VV001
     FM192100 12004KT 3SM BR OVC005
     FM200200 13003KT 2SM BR OVC003
     FM200600 14003KT 1/4SM FG VV001
     FM201530 14005KT 3SM BR OVC005
     FM201700 15006KT 5SM BR OVC012=



000
FTUS44 KLZK 191700 RRA
TAFPBF
TAF
KPBF 191744Z 1918/2018 05006KT P6SM -RA OVC015
      TEMPO 1918/1922 SCT015 OVC060
     FM200000 04004KT P6SM SCT007 OVC012
     FM200900 03003KT 5SM BR OVC007
      TEMPO 2010/2014 3SM BR OVC005
     FM201500 03003KT P6SM BKN015
     FM201700 04004KT P6SM SCT025 BKN060=



000
FTUS44 KLZK 191700 RRA
TAFHOT
TAF
KHOT 191744Z 1918/2018 09005KT 6SM -RA BR OVC007
     FM200000 08003KT 5SM BR OVC005
     FM200900 07003KT 3SM BR OVC003
      TEMPO 2010/2014 1/2SM FG VV001
     FM201530 08003KT 5SM BR OVC007
     FM201700 12003KT P6SM OVC015=



000
FTUS44 KLZK 191700 RRA
TAFLIT
TAF
KLIT 191744Z 1918/2018 08006KT 6SM -RA BR OVC015
     FM200000 07003KT 5SM BR SCT007 OVC012
     FM200900 05003KT 3SM BR OVC007
      TEMPO 2010/2014 1SM BR OVC005
     FM201500 05003KT 5SM BR OVC012
     FM201700 07004KT P6SM OVC020=



000
FTUS44 KLZK 191600 AAB
TAFLIT
TAF AMD
KLIT 191621Z 1916/2012 07006KT P6SM SCT012 OVC020
      TEMPO 1917/1921 5SM -RA BR BKN012
     FM192100 06005KT P6SM OVC015
     FM200200 05004KT P6SM SCT008 BKN015 PROB30 2006/2012 5SM -DZ BR
      OVC008=



000
FTUS44 KLZK 191600 AAA
TAFHOT
TAF AMD
KHOT 191607Z 1916/2012 08004KT 6SM BR OVC007
      TEMPO 1916/1920 4SM -RA BR OVC005
     FM200100 08003KT 5SM BR BKN007 OVC020 PROB30 2006/2012 4SM -DZ
      BR OVC005=



000
FTUS44 KLZK 191600 AAA
TAFHOT
TAF AMD
KHOT 191607Z 1916/2012 08004KT 6SM BR OVC007
      TEMPO 1916/1920 4SM -RA BR OVC005
     FM200100 08003KT 5SM BR BKN007 OVC020 PROB30 2006/2012 4SM -DZ
      BR OVC005=



000
FTUS44 KLZK 191600 AAB
TAFHRO
TAF AMD
KHRO 191606Z 1916/2012 13004KT 1/4SM FG VV001
      TEMPO 1916/1918 3SM BR OVC003
     FM191800 13004KT 3SM BR OVC003
      TEMPO 1921/2001 5SM BR SCT005 OVC015
     FM200200 13002KT 4SM BR OVC007 PROB30 2006/2012 1SM -DZ BR
      OVC003=



000
FTUS44 KLZK 191600 AAB
TAFHRO
TAF AMD
KHRO 191606Z 1916/2012 13004KT 1/4SM FG VV001
      TEMPO 1916/1918 3SM BR OVC003
     FM191800 13004KT 3SM BR OVC003
      TEMPO 1921/2001 5SM BR SCT005 OVC015
     FM200200 13002KT 4SM BR OVC007 PROB30 2006/2012 1SM -DZ BR
      OVC003=



    US Dept of Commerce
    National Oceanic and Atmospheric Administration
    National Weather Service
    1325 East West Highway
    Silver Spring, MD 20910
    Page Author: NWS Internet Services Team
Disclaimer
Information Quality
Credits
Glossary
Privacy Policy
Freedom of Information Act (FOIA)
About Us
Career Opportunities